createdAt,value
2023-05-08T00:01:06.946Z,65.53
2023-05-08T00:03:33.836Z,65.62
2023-05-08T00:06:04.213Z,65.62
2023-05-08T00:08:30.852Z,65.60
2023-05-08T00:10:57.474Z,65.78
2023-05-08T00:13:24.158Z,65.31
2023-05-08T00:15:50.913Z,65.57
2023-05-08T00:18:17.613Z,65.64
2023-05-08T00:20:44.296Z,65.36
2023-05-08T00:23:10.968Z,65.34
2023-05-08T00:25:37.647Z,65.35
2023-05-08T00:28:04.244Z,65.51
2023-05-08T00:30:30.909Z,65.20
2023-05-08T00:32:57.611Z,65.31
2023-05-08T00:35:24.242Z,65.20
2023-05-08T00:37:50.891Z,65.20
2023-05-08T00:40:17.511Z,65.30
2023-05-08T00:42:44.165Z,65.41
2023-05-08T00:45:11.108Z,65.71
2023-05-08T00:47:37.837Z,65.44
2023-05-08T00:50:05.245Z,65.54
2023-05-08T00:52:32.060Z,65.85
2023-05-08T00:54:59.253Z,66.13
2023-05-08T00:57:25.928Z,66.03
2023-05-08T00:59:52.572Z,65.39
2023-05-08T01:02:19.199Z,65.02
2023-05-08T01:04:45.925Z,64.97
2023-05-08T01:07:12.587Z,64.93
2023-05-08T01:09:39.248Z,65.10
2023-05-08T01:12:24.107Z,65.57
2023-05-08T01:15:04.767Z,65.59
2023-05-08T01:17:55.667Z,65.56
2023-05-08T01:20:52.144Z,65.12
2023-05-08T01:23:43.334Z,64.98
2023-05-08T01:26:38.979Z,65.07
2023-05-08T01:29:08.559Z,65.19
2023-05-08T01:32:08.960Z,65.44
2023-05-08T01:34:35.689Z,65.58
2023-05-08T01:37:08.054Z,65.73
2023-05-08T01:39:37.718Z,65.75
2023-05-08T01:42:18.279Z,65.91
2023-05-08T01:44:47.419Z,65.61
2023-05-08T01:47:14.071Z,65.88
2023-05-08T01:49:44.332Z,65.59
2023-05-08T01:52:14.809Z,65.52
2023-05-08T01:54:44.557Z,65.45
2023-05-08T01:57:11.195Z,65.67
2023-05-08T01:59:37.848Z,65.29
2023-05-08T02:02:04.498Z,65.64
2023-05-08T02:04:31.127Z,65.51
2023-05-08T02:06:57.779Z,65.23
2023-05-08T02:09:24.508Z,65.45
2023-05-08T02:11:51.133Z,65.50
2023-05-08T02:14:19.297Z,65.69
2023-05-08T02:16:45.929Z,65.26
2023-05-08T02:19:12.631Z,65.49
2023-05-08T02:21:39.252Z,65.52
2023-05-08T02:24:05.856Z,65.69
2023-05-08T02:26:32.960Z,65.62
2023-05-08T02:28:59.714Z,65.75
2023-05-08T02:31:26.351Z,65.98
2023-05-08T02:33:52.965Z,65.80
2023-05-08T02:36:21.731Z,65.62
2023-05-08T02:38:50.523Z,65.72
2023-05-08T02:41:18.026Z,66.13
2023-05-08T02:43:44.951Z,65.92
2023-05-08T02:46:16.263Z,65.93
2023-05-08T02:49:04.508Z,65.97
2023-05-08T02:51:44.088Z,65.84
2023-05-08T02:54:12.678Z,65.87
2023-05-08T02:56:53.330Z,66.27
2023-05-08T02:59:22.191Z,66.07
2023-05-08T03:02:10.669Z,66.30
2023-05-08T03:04:40.337Z,66.37
2023-05-08T03:07:06.933Z,66.43
2023-05-08T03:09:45.383Z,66.06
2023-05-08T03:12:14.818Z,66.01
2023-05-08T03:14:53.613Z,66.00
2023-05-08T03:17:20.276Z,66.50
2023-05-08T03:19:49.199Z,66.53
2023-05-08T03:22:15.854Z,66.33
2023-05-08T03:24:42.745Z,66.15
2023-05-08T03:27:09.374Z,66.02
2023-05-08T03:29:36.744Z,65.87
2023-05-08T03:32:03.393Z,65.45
2023-05-08T03:34:30.048Z,65.54
2023-05-08T03:36:56.773Z,65.43
2023-05-08T03:39:24.485Z,65.10
2023-05-08T03:41:51.197Z,65.33
2023-05-08T03:44:17.877Z,65.51
2023-05-08T03:46:45.110Z,65.55
2023-05-08T03:49:11.751Z,65.37
2023-05-08T03:51:39.071Z,65.53
2023-05-08T03:54:05.697Z,65.42
2023-05-08T03:56:33.321Z,65.63
2023-05-08T03:59:11.857Z,65.51
2023-05-08T04:01:39.977Z,65.73
2023-05-08T04:04:17.788Z,65.99
2023-05-08T04:06:51.354Z,65.81
2023-05-08T04:09:27.010Z,65.44
2023-05-08T04:12:09.583Z,65.85
2023-05-08T04:14:43.866Z,65.79
2023-05-08T04:17:10.777Z,65.93
2023-05-08T04:19:38.944Z,66.03
2023-05-08T04:22:06.865Z,65.99
2023-05-08T04:24:34.972Z,65.60
2023-05-08T04:27:01.591Z,65.67
2023-05-08T04:29:28.216Z,65.41
2023-05-08T04:31:54.934Z,65.65
2023-05-08T04:34:21.790Z,65.82
2023-05-08T04:36:48.388Z,65.82
2023-05-08T04:39:15.053Z,66.21
2023-05-08T04:41:41.721Z,66.14
2023-05-08T04:44:08.433Z,66.03
2023-05-08T04:46:35.207Z,65.56
2023-05-08T04:49:01.970Z,65.99
2023-05-08T04:51:28.564Z,65.76
2023-05-08T04:53:55.200Z,66.17
2023-05-08T04:56:21.822Z,65.79
2023-05-08T04:58:48.459Z,65.65
2023-05-08T05:01:15.134Z,65.75
2023-05-08T05:03:41.910Z,65.75
2023-05-08T05:06:08.621Z,65.89
2023-05-08T05:08:35.275Z,65.73
2023-05-08T05:11:01.982Z,65.42
2023-05-08T05:13:28.683Z,65.48
2023-05-08T05:15:55.979Z,65.63
2023-05-08T05:18:22.689Z,65.43
2023-05-08T05:20:49.401Z,65.04
2023-05-08T05:23:16.047Z,65.42
2023-05-08T05:25:42.696Z,65.03
2023-05-08T05:28:09.436Z,65.32
2023-05-08T05:30:36.036Z,64.92
2023-05-08T05:33:02.659Z,64.70
2023-05-08T05:35:29.298Z,64.55
2023-05-08T05:37:55.924Z,64.83
2023-05-08T05:40:22.587Z,65.24
2023-05-08T05:42:49.755Z,64.75
2023-05-08T05:45:16.504Z,64.75
2023-05-08T05:47:46.516Z,65.37
2023-05-08T05:50:13.407Z,64.65
2023-05-08T05:52:40.177Z,65.05
2023-05-08T05:55:07.188Z,64.80
2023-05-08T05:57:33.851Z,64.38
2023-05-08T06:00:00.557Z,64.14
2023-05-08T06:02:27.365Z,64.50
2023-05-08T06:04:54.131Z,64.73
2023-05-08T06:07:20.788Z,64.49
2023-05-08T06:09:47.841Z,64.30
2023-05-08T06:12:14.483Z,64.69
2023-05-08T06:14:41.166Z,63.79
2023-05-08T06:17:07.933Z,64.57
2023-05-08T06:19:34.697Z,64.53
2023-05-08T06:22:01.309Z,63.45
2023-05-08T06:24:27.987Z,63.42
2023-05-08T06:26:54.576Z,63.43
2023-05-08T06:29:21.446Z,62.71
2023-05-08T06:31:48.052Z,63.42
2023-05-08T06:34:14.788Z,64.41
2023-05-08T06:36:41.413Z,64.30
2023-05-08T06:39:08.049Z,64.08
2023-05-08T06:41:34.669Z,63.46
2023-05-08T06:44:01.361Z,62.67
2023-05-08T06:46:29.060Z,63.65
2023-05-08T06:48:55.712Z,63.80
2023-05-08T06:51:22.363Z,63.72
2023-05-08T06:53:49.083Z,62.94
2023-05-08T06:56:15.720Z,63.44
2023-05-08T06:58:43.506Z,62.84
2023-05-08T07:01:11.493Z,62.86
2023-05-08T07:03:38.168Z,62.79
2023-05-08T07:06:05.018Z,62.52
2023-05-08T07:08:31.631Z,61.24
2023-05-08T07:10:58.374Z,62.08
2023-05-08T07:13:25.064Z,61.93
2023-05-08T07:15:51.900Z,62.09
2023-05-08T07:18:18.560Z,61.75
2023-05-08T07:20:45.189Z,59.39
2023-05-08T07:23:11.773Z,59.63
2023-05-08T07:25:38.377Z,60.71
2023-05-08T07:28:05.195Z,60.17
2023-05-08T07:30:34.021Z,58.85
2023-05-08T07:33:00.745Z,59.30
2023-05-08T07:35:27.526Z,59.60
2023-05-08T07:37:54.434Z,58.69
2023-05-08T07:40:21.147Z,59.52
2023-05-08T07:42:47.819Z,56.54
2023-05-08T07:45:14.694Z,57.95
2023-05-08T07:47:54.271Z,57.01
2023-05-08T07:50:21.428Z,57.41
2023-05-08T07:52:49.945Z,58.02
2023-05-08T07:55:17.132Z,57.11
2023-05-08T07:57:43.816Z,56.55
2023-05-08T08:00:14.294Z,56.88
2023-05-08T08:02:42.540Z,56.01
2023-05-08T08:05:09.361Z,57.12
2023-05-08T08:07:36.035Z,56.83
2023-05-08T08:10:02.739Z,57.70
2023-05-08T08:12:29.332Z,57.77
2023-05-08T08:14:55.968Z,57.83
2023-05-08T08:17:22.686Z,57.20
2023-05-08T08:19:49.386Z,57.37
2023-05-08T08:22:16.032Z,57.20
2023-05-08T08:24:42.625Z,56.03
2023-05-08T08:27:09.257Z,55.61
2023-05-08T08:29:35.857Z,55.18
2023-05-08T08:32:02.492Z,55.35
2023-05-08T08:34:29.163Z,54.51
2023-05-08T08:36:55.801Z,53.54
2023-05-08T08:39:22.451Z,53.28
2023-05-08T08:41:49.107Z,52.96
2023-05-08T08:44:15.764Z,53.78
2023-05-08T08:46:44.931Z,52.81
2023-05-08T08:49:11.656Z,52.76
2023-05-08T08:51:50.716Z,51.56
2023-05-08T08:54:21.113Z,51.89
2023-05-08T08:56:48.627Z,51.58
2023-05-08T08:59:16.348Z,50.52
2023-05-08T09:01:45.017Z,50.73
2023-05-08T09:04:11.761Z,49.54
2023-05-08T09:06:38.429Z,49.70
2023-05-08T09:09:05.203Z,49.60
2023-05-08T09:11:31.837Z,49.87
2023-05-08T09:13:58.471Z,49.72
2023-05-08T09:16:25.266Z,50.79
2023-05-08T09:18:51.915Z,51.22
2023-05-08T09:21:18.579Z,50.89
2023-05-08T09:24:01.563Z,53.62
2023-05-08T09:26:36.822Z,54.85
2023-05-08T09:29:19.744Z,54.14
2023-05-08T09:31:47.448Z,53.43
2023-05-08T09:34:30.054Z,54.91
2023-05-08T09:37:05.599Z,53.21
2023-05-08T09:39:32.270Z,51.89
2023-05-08T09:41:59.880Z,51.28
2023-05-08T09:44:26.510Z,51.59
2023-05-08T09:46:56.491Z,51.87
2023-05-08T09:49:23.149Z,52.50
2023-05-08T09:51:52.765Z,51.36
2023-05-08T09:54:19.435Z,51.16
2023-05-08T09:56:46.070Z,50.89
2023-05-08T09:59:25.049Z,51.66
2023-05-08T10:01:51.729Z,52.02
2023-05-08T10:04:18.457Z,49.47
2023-05-08T10:06:57.055Z,50.38
2023-05-08T10:09:23.722Z,50.68
2023-05-08T10:11:51.900Z,49.38
2023-05-08T10:14:19.297Z,49.34
2023-05-08T10:16:46.990Z,49.01
2023-05-08T10:19:15.227Z,49.18
2023-05-08T10:21:49.931Z,50.80
2023-05-08T10:24:17.915Z,47.23
2023-05-08T10:27:06.786Z,47.29
2023-05-08T10:29:42.401Z,47.47
2023-05-08T10:32:09.765Z,49.16
2023-05-08T10:34:36.831Z,51.40
2023-05-08T10:37:03.494Z,50.50
2023-05-08T10:39:30.140Z,50.53
2023-05-08T10:41:56.817Z,50.61
2023-05-08T10:44:23.474Z,47.54
2023-05-08T10:47:20.573Z,47.98
2023-05-08T10:50:08.805Z,48.12
2023-05-08T10:53:08.028Z,49.92
2023-05-08T10:55:36.381Z,47.56
2023-05-08T10:58:06.651Z,50.51
2023-05-08T11:00:53.898Z,48.69
2023-05-08T11:03:30.665Z,47.69
2023-05-08T11:05:59.592Z,49.45
2023-05-08T11:08:27.288Z,51.50
2023-05-08T11:10:59.807Z,50.24
2023-05-08T11:13:28.282Z,48.71
2023-05-08T11:15:54.969Z,45.92
2023-05-08T11:18:22.081Z,46.52
2023-05-08T11:21:02.518Z,46.71
2023-05-08T11:23:38.007Z,46.20
2023-05-08T11:26:05.272Z,46.42
2023-05-08T11:28:33.295Z,46.11
2023-05-08T11:31:04.826Z,47.68
2023-05-08T11:33:32.449Z,45.89
2023-05-08T11:36:25.107Z,44.29
2023-05-08T11:39:08.544Z,47.14
2023-05-08T11:41:35.263Z,48.54
2023-05-08T11:44:04.840Z,46.36
2023-05-08T11:46:54.917Z,45.28
2023-05-08T11:49:28.910Z,44.40
2023-05-08T11:51:58.275Z,47.99
2023-05-08T11:54:25.287Z,43.22
2023-05-08T11:56:52.693Z,44.15
2023-05-08T11:59:19.333Z,45.15
2023-05-08T12:01:59.891Z,46.89
2023-05-08T12:04:42.673Z,45.20
2023-05-08T12:07:09.422Z,41.97
2023-05-08T12:09:36.061Z,42.58
2023-05-08T12:12:02.727Z,45.19
2023-05-08T12:14:29.368Z,43.30
2023-05-08T12:16:56.094Z,44.07
2023-05-08T12:19:22.753Z,46.28
2023-05-08T12:21:49.476Z,46.25
2023-05-08T12:24:16.509Z,42.94
2023-05-08T12:26:43.188Z,44.08
2023-05-08T12:29:09.799Z,43.37
2023-05-08T12:31:36.523Z,44.71
2023-05-08T12:34:03.913Z,47.63
2023-05-08T12:36:36.765Z,48.02
2023-05-08T12:39:16.217Z,44.00
2023-05-08T12:41:52.608Z,47.66
2023-05-08T12:44:19.209Z,48.99
2023-05-08T12:46:47.324Z,44.13
2023-05-08T12:49:14.034Z,43.76
2023-05-08T12:51:45.936Z,44.05
2023-05-08T12:54:12.566Z,45.31
2023-05-08T12:56:43.194Z,45.52
2023-05-08T12:59:09.792Z,47.06
2023-05-08T13:01:36.453Z,47.75
2023-05-08T13:04:06.704Z,47.34
2023-05-08T13:06:33.486Z,49.25
2023-05-08T13:09:00.185Z,49.25
2023-05-08T13:11:30.877Z,49.84
2023-05-08T13:13:57.550Z,46.92
2023-05-08T13:16:24.337Z,47.11
2023-05-08T13:18:50.964Z,48.46
2023-05-08T13:21:17.646Z,47.50
2023-05-08T13:23:44.264Z,47.75
2023-05-08T13:26:10.923Z,47.56
2023-05-08T13:28:37.538Z,47.96
2023-05-08T13:31:04.229Z,49.58
2023-05-08T13:33:30.917Z,48.68
2023-05-08T13:35:57.572Z,48.23
2023-05-08T13:38:24.223Z,49.78
2023-05-08T13:40:50.815Z,49.26
2023-05-08T13:43:17.524Z,49.02
2023-05-08T13:45:44.320Z,49.50
2023-05-08T13:48:11.138Z,48.54
2023-05-08T13:50:37.860Z,48.29
2023-05-08T13:53:04.466Z,49.54
2023-05-08T13:55:31.104Z,50.00
2023-05-08T13:57:57.802Z,50.30
2023-05-08T14:00:26.620Z,50.75
2023-05-08T14:02:54.567Z,50.48
2023-05-08T14:05:21.328Z,50.71
2023-05-08T14:07:47.939Z,48.65
2023-05-08T14:10:14.658Z,45.62
2023-05-08T14:12:41.357Z,49.14
2023-05-08T14:15:08.751Z,51.69
2023-05-08T14:17:35.388Z,49.36
2023-05-08T14:20:02.283Z,47.32
2023-05-08T14:22:28.966Z,48.38
2023-05-08T14:24:55.709Z,46.79
2023-05-08T14:27:22.345Z,50.25
2023-05-08T14:29:48.992Z,48.18
2023-05-08T14:32:15.665Z,47.98
2023-05-08T14:34:42.284Z,48.01
2023-05-08T14:37:08.985Z,50.49
2023-05-08T14:39:35.690Z,44.06
2023-05-08T14:42:21.478Z,44.72
2023-05-08T14:44:49.100Z,48.10
2023-05-08T14:47:15.822Z,49.38
2023-05-08T14:49:42.472Z,48.90
2023-05-08T14:52:09.133Z,48.99
2023-05-08T14:54:36.001Z,44.94
2023-05-08T14:57:02.852Z,45.59
2023-05-08T14:59:29.531Z,44.08
2023-05-08T15:01:56.162Z,44.46
2023-05-08T15:04:22.951Z,43.19
2023-05-08T15:06:49.648Z,43.05
2023-05-08T15:09:16.337Z,43.09
2023-05-08T15:11:43.019Z,44.65
2023-05-08T15:14:09.779Z,44.87
2023-05-08T15:16:36.506Z,43.34
2023-05-08T15:19:03.207Z,41.92
2023-05-08T15:21:29.822Z,45.33
2023-05-08T15:23:56.508Z,43.47
2023-05-08T15:26:23.137Z,42.55
2023-05-08T15:28:49.858Z,46.19
2023-05-08T15:31:17.071Z,42.39
2023-05-08T15:33:43.705Z,43.92
2023-05-08T15:36:13.292Z,45.43
2023-05-08T15:38:43.398Z,46.46
2023-05-08T15:41:11.423Z,44.62
2023-05-08T15:43:40.401Z,43.25
2023-05-08T15:46:07.035Z,43.94
2023-05-08T15:48:33.725Z,45.40
2023-05-08T15:51:00.347Z,47.77
2023-05-08T15:53:27.018Z,47.06
2023-05-08T15:55:53.692Z,48.47
2023-05-08T15:58:20.344Z,48.96
2023-05-08T16:00:47.024Z,48.05
2023-05-08T16:03:13.887Z,49.55
2023-05-08T16:05:40.663Z,49.83
2023-05-08T16:08:07.315Z,49.07
2023-05-08T16:10:34.206Z,48.32
2023-05-08T16:13:00.936Z,47.81
2023-05-08T16:15:27.626Z,45.20
2023-05-08T16:17:54.431Z,48.89
2023-05-08T16:20:21.184Z,47.03
2023-05-08T16:22:47.809Z,46.96
2023-05-08T16:25:14.797Z,47.33
2023-05-08T16:27:41.595Z,42.62
2023-05-08T16:30:08.868Z,45.43
2023-05-08T16:32:35.565Z,49.67
2023-05-08T16:35:02.533Z,49.93
2023-05-08T16:37:29.324Z,49.96
2023-05-08T16:39:56.004Z,47.62
2023-05-08T16:42:22.697Z,48.83
2023-05-08T16:44:49.345Z,51.27
2023-05-08T16:47:16.074Z,51.35
2023-05-08T16:49:42.886Z,50.30
2023-05-08T16:52:09.582Z,51.62
2023-05-08T16:54:36.204Z,53.25
2023-05-08T16:57:02.861Z,49.21
2023-05-08T16:59:29.510Z,52.09
2023-05-08T17:01:56.136Z,54.29
2023-05-08T17:04:22.795Z,55.51
2023-05-08T17:06:49.414Z,54.56
2023-05-08T17:09:16.180Z,53.99
2023-05-08T17:11:42.841Z,53.88
2023-05-08T17:14:09.513Z,49.63
2023-05-08T17:16:36.266Z,49.44
2023-05-08T17:19:02.956Z,49.75
2023-05-08T17:21:29.607Z,52.00
2023-05-08T17:23:56.279Z,52.81
2023-05-08T17:26:22.951Z,55.14
2023-05-08T17:28:49.689Z,54.10
2023-05-08T17:31:16.381Z,49.58
2023-05-08T17:33:43.151Z,50.64
2023-05-08T17:36:09.830Z,51.93
2023-05-08T17:38:36.487Z,53.22
2023-05-08T17:41:03.097Z,53.06
2023-05-08T17:43:29.732Z,53.06
2023-05-08T17:45:57.139Z,50.52
2023-05-08T17:48:23.845Z,49.11
2023-05-08T17:50:50.477Z,50.63
2023-05-08T17:53:17.096Z,46.19
2023-05-08T17:55:43.741Z,47.04
2023-05-08T17:58:10.360Z,49.03
2023-05-08T18:00:36.983Z,46.66
2023-05-08T18:03:04.107Z,47.10
2023-05-08T18:05:30.838Z,47.40
2023-05-08T18:07:57.592Z,46.10
2023-05-08T18:10:24.227Z,47.21
2023-05-08T18:12:50.866Z,47.94
2023-05-08T18:15:17.524Z,46.08
2023-05-08T18:17:44.245Z,47.32
2023-05-08T18:20:11.371Z,47.51
2023-05-08T18:22:38.130Z,46.46
2023-05-08T18:25:04.996Z,48.75
2023-05-08T18:27:32.884Z,48.07
2023-05-08T18:29:59.555Z,48.64
2023-05-08T18:32:26.192Z,48.13
2023-05-08T18:34:52.885Z,48.39
2023-05-08T18:37:19.548Z,49.09
2023-05-08T18:39:46.282Z,49.45
2023-05-08T18:42:12.915Z,49.40
2023-05-08T18:44:39.521Z,49.92
2023-05-08T18:47:06.202Z,52.28
2023-05-08T18:49:32.855Z,50.10
2023-05-08T18:51:59.523Z,50.54
2023-05-08T18:54:26.211Z,49.07
2023-05-08T18:56:55.516Z,51.34
2023-05-08T18:59:22.128Z,51.42
2023-05-08T19:01:49.812Z,49.38
2023-05-08T19:04:16.450Z,50.38
2023-05-08T19:06:43.072Z,50.83
2023-05-08T19:09:09.674Z,51.47
2023-05-08T19:11:36.261Z,49.77
2023-05-08T19:14:02.988Z,50.63
2023-05-08T19:16:29.707Z,50.27
2023-05-08T19:18:56.364Z,50.55
2023-05-08T19:21:23.072Z,50.05
2023-05-08T19:23:49.763Z,50.67
2023-05-08T19:26:16.446Z,50.57
2023-05-08T19:28:43.070Z,51.45
2023-05-08T19:31:09.759Z,50.89
2023-05-08T19:33:36.480Z,50.94
2023-05-08T19:36:03.126Z,49.88
2023-05-08T19:38:29.766Z,51.17
2023-05-08T19:40:57.884Z,50.49
2023-05-08T19:43:27.504Z,49.55
2023-05-08T19:45:55.138Z,50.08
2023-05-08T19:48:21.887Z,49.84
2023-05-08T19:50:48.635Z,48.60
2023-05-08T19:53:15.381Z,49.50
2023-05-08T19:55:42.019Z,49.16
2023-05-08T19:58:08.617Z,48.81
2023-05-08T20:00:35.344Z,49.02
2023-05-08T20:03:02.104Z,49.56
2023-05-08T20:05:28.765Z,47.32
2023-05-08T20:07:55.371Z,47.96
2023-05-08T20:10:22.288Z,48.37
2023-05-08T20:12:49.027Z,48.06
2023-05-08T20:15:15.793Z,47.89
2023-05-08T20:17:42.558Z,47.73
2023-05-08T20:20:09.797Z,48.08
2023-05-08T20:22:36.448Z,48.07
2023-05-08T20:25:04.603Z,48.27
2023-05-08T20:27:31.608Z,48.38
2023-05-08T20:29:58.288Z,47.97
2023-05-08T20:32:24.996Z,47.79
2023-05-08T20:34:51.680Z,48.11
2023-05-08T20:37:18.313Z,48.20
2023-05-08T20:39:45.007Z,48.48
2023-05-08T20:42:11.674Z,47.51
2023-05-08T20:44:38.326Z,48.04
2023-05-08T20:47:05.034Z,47.63
2023-05-08T20:49:31.771Z,47.28
2023-05-08T20:51:58.372Z,47.06
2023-05-08T20:54:24.992Z,48.49
2023-05-08T20:56:51.683Z,47.37
2023-05-08T20:59:18.290Z,47.56
2023-05-08T21:01:44.994Z,49.02
2023-05-08T21:04:11.721Z,48.37
2023-05-08T21:06:38.696Z,49.46
2023-05-08T21:09:06.854Z,48.85
2023-05-08T21:11:33.854Z,50.71
2023-05-08T21:14:00.535Z,50.69
2023-05-08T21:16:27.293Z,51.23
2023-05-08T21:18:55.479Z,49.71
2023-05-08T21:21:24.176Z,50.60
2023-05-08T21:23:50.848Z,49.86
2023-05-08T21:26:17.518Z,50.97
2023-05-08T21:28:44.118Z,52.75
2023-05-08T21:31:10.829Z,50.11
2023-05-08T21:33:37.494Z,49.64
2023-05-08T21:36:04.163Z,50.62
2023-05-08T21:38:30.830Z,50.90
2023-05-08T21:40:57.476Z,50.81
2023-05-08T21:43:24.108Z,51.84
2023-05-08T21:45:50.747Z,51.54
2023-05-08T21:48:17.429Z,52.24
2023-05-08T21:50:44.106Z,53.46
2023-05-08T21:53:10.748Z,52.95
2023-05-08T21:55:37.448Z,52.13
2023-05-08T21:58:04.087Z,53.04
2023-05-08T22:00:30.699Z,53.33
2023-05-08T22:02:57.439Z,53.29
2023-05-08T22:05:24.219Z,53.89
2023-05-08T22:07:50.838Z,53.41
2023-05-08T22:10:17.500Z,53.61
2023-05-08T22:12:44.108Z,53.47
2023-05-08T22:15:25.540Z,53.33
2023-05-08T22:17:55.553Z,54.02
2023-05-08T22:20:22.253Z,54.20
2023-05-08T22:22:51.855Z,54.51
2023-05-08T22:25:18.482Z,53.19
2023-05-08T22:27:45.277Z,53.69
2023-05-08T22:30:12.028Z,53.95
2023-05-08T22:32:38.709Z,54.24
2023-05-08T22:35:06.134Z,53.54
2023-05-08T22:37:32.954Z,54.20
2023-05-08T22:39:59.579Z,54.47
2023-05-08T22:42:26.241Z,53.77
2023-05-08T22:44:52.868Z,53.93
2023-05-08T22:47:19.509Z,54.53
2023-05-08T22:49:49.223Z,54.89
2023-05-08T22:52:15.905Z,55.12
2023-05-08T22:54:42.644Z,55.25
2023-05-08T22:57:09.302Z,55.37
2023-05-08T22:59:36.421Z,55.75
2023-05-08T23:02:03.610Z,55.59
2023-05-08T23:04:30.379Z,55.87
2023-05-08T23:06:57.042Z,56.16
2023-05-08T23:09:23.723Z,56.65
2023-05-08T23:11:50.394Z,56.96
2023-05-08T23:14:17.039Z,56.61
2023-05-08T23:16:43.681Z,56.74
2023-05-08T23:19:10.324Z,56.67
2023-05-08T23:21:36.929Z,56.52
2023-05-08T23:24:04.703Z,56.48
2023-05-08T23:26:31.352Z,56.27
2023-05-08T23:28:57.966Z,56.63
2023-05-08T23:31:24.643Z,56.59
2023-05-08T23:33:51.324Z,56.67
2023-05-08T23:36:19.150Z,56.86
2023-05-08T23:38:45.756Z,56.87
2023-05-08T23:41:12.427Z,56.90
2023-05-08T23:43:39.045Z,57.44
2023-05-08T23:46:05.717Z,57.77
2023-05-08T23:48:32.646Z,57.75
2023-05-08T23:50:59.260Z,57.66
2023-05-08T23:53:25.935Z,57.34
2023-05-08T23:55:52.598Z,57.65
2023-05-08T23:58:19.277Z,57.39
